sensor_id;sensor_type;location;lat;lon;timestamp;P1;durP1;ratioP1;P2;durP2;ratioP2
71435;SDS011;59251;51.326;12.370;2022-08-23T00:00:15;10.07;;;3.43;;
71435;SDS011;59251;51.326;12.370;2022-08-23T00:02:40;11.52;;;3.65;;
71435;SDS011;59251;51.326;12.370;2022-08-23T00:05:06;9.73;;;4.60;;
71435;SDS011;59251;51.326;12.370;2022-08-23T00:07:32;11.30;;;4.18;;
71435;SDS011;59251;51.326;12.370;2022-08-23T00:09:57;10.33;;;4.30;;
71435;SDS011;59251;51.326;12.370;2022-08-23T00:12:23;11.10;;;4.20;;
71435;SDS011;59251;51.326;12.370;2022-08-23T00:14:50;11.27;;;4.30;;
71435;SDS011;59251;51.326;12.370;2022-08-23T00:17:18;9.60;;;4.57;;
71435;SDS011;59251;51.326;12.370;2022-08-23T00:19:44;10.13;;;4.87;;
71435;SDS011;59251;51.326;12.370;2022-08-23T00:22:12;8.77;;;4.50;;
71435;SDS011;59251;51.326;12.370;2022-08-23T00:24:39;12.82;;;4.95;;
71435;SDS011;59251;51.326;12.370;2022-08-23T00:27:10;10.47;;;4.53;;
71435;SDS011;59251;51.326;12.370;2022-08-23T00:29:41;11.03;;;4.67;;
71435;SDS011;59251;51.326;12.370;2022-08-23T00:32:16;10.07;;;4.32;;
71435;SDS011;59251;51.326;12.370;2022-08-23T00:34:45;11.98;;;4.57;;
71435;SDS011;59251;51.326;12.370;2022-08-23T00:37:10;10.30;;;4.23;;
71435;SDS011;59251;51.326;12.370;2022-08-23T00:39:36;12.75;;;4.43;;
71435;SDS011;59251;51.326;12.370;2022-08-23T00:42:10;9.45;;;4.22;;
71435;SDS011;59251;51.326;12.370;2022-08-23T00:45:09;9.20;;;4.20;;
71435;SDS011;59251;51.326;12.370;2022-08-23T00:47:59;8.52;;;4.30;;
71435;SDS011;59251;51.326;12.370;2022-08-23T00:50:59;13.48;;;4.78;;
71435;SDS011;59251;51.326;12.370;2022-08-23T00:53:27;12.60;;;4.10;;
71435;SDS011;59251;51.326;12.370;2022-08-23T00:55:57;9.55;;;4.25;;
71435;SDS011;59251;51.326;12.370;2022-08-23T00:58:27;12.73;;;4.57;;
71435;SDS011;59251;51.326;12.370;2022-08-23T01:00:54;9.02;;;4.03;;
71435;SDS011;59251;51.326;12.370;2022-08-23T01:03:22;10.68;;;4.95;;
71435;SDS011;59251;51.326;12.370;2022-08-23T01:08:36;13.27;;;4.40;;
71435;SDS011;59251;51.326;12.370;2022-08-23T01:11:07;10.53;;;4.23;;
71435;SDS011;59251;51.326;12.370;2022-08-23T01:13:39;12.55;;;4.45;;
71435;SDS011;59251;51.326;12.370;2022-08-23T01:16:13;9.98;;;3.90;;
71435;SDS011;59251;51.326;12.370;2022-08-23T01:18:43;10.07;;;4.22;;
71435;SDS011;59251;51.326;12.370;2022-08-23T01:21:13;10.35;;;4.47;;
71435;SDS011;59251;51.326;12.370;2022-08-23T01:23:49;10.97;;;4.10;;
71435;SDS011;59251;51.326;12.370;2022-08-23T01:26:18;10.52;;;4.03;;
71435;SDS011;59251;51.326;12.370;2022-08-23T01:28:45;9.43;;;4.88;;
71435;SDS011;59251;51.326;12.370;2022-08-23T01:31:11;8.97;;;4.57;;
71435;SDS011;59251;51.326;12.370;2022-08-23T01:33:38;10.15;;;4.80;;
71435;SDS011;59251;51.326;12.370;2022-08-23T01:36:07;12.15;;;4.53;;
71435;SDS011;59251;51.326;12.370;2022-08-23T01:38:36;10.48;;;4.25;;
71435;SDS011;59251;51.326;12.370;2022-08-23T01:41:02;13.87;;;4.57;;
71435;SDS011;59251;51.326;12.370;2022-08-23T01:43:28;10.75;;;4.70;;
71435;SDS011;59251;51.326;12.370;2022-08-23T01:45:54;9.13;;;3.87;;
71435;SDS011;59251;51.326;12.370;2022-08-23T01:48:20;9.40;;;4.13;;
71435;SDS011;59251;51.326;12.370;2022-08-23T01:50:46;9.75;;;4.50;;
71435;SDS011;59251;51.326;12.370;2022-08-23T01:53:12;8.30;;;4.70;;
71435;SDS011;59251;51.326;12.370;2022-08-23T01:55:39;10.43;;;5.22;;
71435;SDS011;59251;51.326;12.370;2022-08-23T01:58:05;10.35;;;4.90;;
71435;SDS011;59251;51.326;12.370;2022-08-23T02:00:34;12.02;;;4.78;;
71435;SDS011;59251;51.326;12.370;2022-08-23T02:03:03;14.52;;;5.40;;
71435;SDS011;59251;51.326;12.370;2022-08-23T02:05:29;9.73;;;4.77;;
71435;SDS011;59251;51.326;12.370;2022-08-23T02:07:55;9.90;;;4.88;;
71435;SDS011;59251;51.326;12.370;2022-08-23T02:10:41;11.80;;;5.00;;
71435;SDS011;59251;51.326;12.370;2022-08-23T02:13:06;13.87;;;5.10;;
71435;SDS011;59251;51.326;12.370;2022-08-23T02:15:32;11.67;;;5.50;;
71435;SDS011;59251;51.326;12.370;2022-08-23T02:17:58;11.20;;;5.90;;
71435;SDS011;59251;51.326;12.370;2022-08-23T02:20:24;11.53;;;5.70;;
71435;SDS011;59251;51.326;12.370;2022-08-23T02:22:49;10.63;;;4.90;;
71435;SDS011;59251;51.326;12.370;2022-08-23T02:25:15;8.17;;;4.53;;
71435;SDS011;59251;51.326;12.370;2022-08-23T02:27:41;11.70;;;4.95;;
71435;SDS011;59251;51.326;12.370;2022-08-23T02:30:06;9.07;;;5.23;;
71435;SDS011;59251;51.326;12.370;2022-08-23T02:32:32;10.00;;;5.25;;
71435;SDS011;59251;51.326;12.370;2022-08-23T02:34:57;10.03;;;5.50;;
71435;SDS011;59251;51.326;12.370;2022-08-23T02:37:23;11.47;;;5.40;;
71435;SDS011;59251;51.326;12.370;2022-08-23T02:39:48;13.10;;;5.80;;
71435;SDS011;59251;51.326;12.370;2022-08-23T02:42:14;9.80;;;5.60;;
71435;SDS011;59251;51.326;12.370;2022-08-23T02:44:39;11.43;;;5.30;;
71435;SDS011;59251;51.326;12.370;2022-08-23T02:47:05;13.10;;;5.53;;
71435;SDS011;59251;51.326;12.370;2022-08-23T02:49:35;11.60;;;5.70;;
71435;SDS011;59251;51.326;12.370;2022-08-23T02:52:01;10.33;;;5.60;;
71435;SDS011;59251;51.326;12.370;2022-08-23T02:54:28;11.20;;;5.93;;
71435;SDS011;59251;51.326;12.370;2022-08-23T02:56:54;11.90;;;5.87;;
71435;SDS011;59251;51.326;12.370;2022-08-23T02:59:19;12.97;;;6.03;;
71435;SDS011;59251;51.326;12.370;2022-08-23T03:01:44;10.50;;;5.90;;
71435;SDS011;59251;51.326;12.370;2022-08-23T03:04:10;12.57;;;5.47;;
71435;SDS011;59251;51.326;12.370;2022-08-23T03:06:36;14.43;;;5.67;;
71435;SDS011;59251;51.326;12.370;2022-08-23T03:09:02;12.85;;;6.03;;
71435;SDS011;59251;51.326;12.370;2022-08-23T03:11:29;12.23;;;6.18;;
71435;SDS011;59251;51.326;12.370;2022-08-23T03:13:55;10.03;;;5.53;;
71435;SDS011;59251;51.326;12.370;2022-08-23T03:16:20;10.50;;;5.80;;
71435;SDS011;59251;51.326;12.370;2022-08-23T03:18:46;12.38;;;6.28;;
71435;SDS011;59251;51.326;12.370;2022-08-23T03:21:12;14.13;;;6.35;;
71435;SDS011;59251;51.326;12.370;2022-08-23T03:23:38;12.40;;;6.40;;
71435;SDS011;59251;51.326;12.370;2022-08-23T03:26:05;11.23;;;5.93;;
71435;SDS011;59251;51.326;12.370;2022-08-23T03:28:32;10.77;;;5.55;;
71435;SDS011;59251;51.326;12.370;2022-08-23T03:30:58;10.70;;;5.68;;
71435;SDS011;59251;51.326;12.370;2022-08-23T03:33:24;10.53;;;5.80;;
71435;SDS011;59251;51.326;12.370;2022-08-23T03:35:49;11.57;;;6.03;;
71435;SDS011;59251;51.326;12.370;2022-08-23T03:38:15;10.10;;;5.37;;
71435;SDS011;59251;51.326;12.370;2022-08-23T03:40:41;10.38;;;4.97;;
71435;SDS011;59251;51.326;12.370;2022-08-23T03:43:08;11.90;;;5.27;;
71435;SDS011;59251;51.326;12.370;2022-08-23T03:45:33;11.93;;;5.63;;
71435;SDS011;59251;51.326;12.370;2022-08-23T03:47:59;10.82;;;5.68;;
71435;SDS011;59251;51.326;12.370;2022-08-23T03:50:25;14.83;;;5.83;;
71435;SDS011;59251;51.326;12.370;2022-08-23T03:52:51;11.95;;;5.50;;
71435;SDS011;59251;51.326;12.370;2022-08-23T03:55:16;10.43;;;5.53;;
71435;SDS011;59251;51.326;12.370;2022-08-23T03:57:42;14.10;;;6.00;;
71435;SDS011;59251;51.326;12.370;2022-08-23T04:00:08;14.13;;;5.50;;
71435;SDS011;59251;51.326;12.370;2022-08-23T04:02:35;14.33;;;6.43;;
71435;SDS011;59251;51.326;12.370;2022-08-23T04:05:01;18.25;;;5.75;;
71435;SDS011;59251;51.326;12.370;2022-08-23T04:07:27;10.60;;;5.30;;
71435;SDS011;59251;51.326;12.370;2022-08-23T04:09:53;12.05;;;5.68;;
71435;SDS011;59251;51.326;12.370;2022-08-23T04:12:19;13.20;;;6.50;;
71435;SDS011;59251;51.326;12.370;2022-08-23T04:14:44;12.63;;;6.57;;
71435;SDS011;59251;51.326;12.370;2022-08-23T04:17:12;11.83;;;6.80;;
71435;SDS011;59251;51.326;12.370;2022-08-23T04:19:38;11.25;;;6.10;;
71435;SDS011;59251;51.326;12.370;2022-08-23T04:22:06;11.85;;;6.40;;
71435;SDS011;59251;51.326;12.370;2022-08-23T04:24:36;14.65;;;6.10;;
71435;SDS011;59251;51.326;12.370;2022-08-23T04:27:02;10.93;;;5.93;;
71435;SDS011;59251;51.326;12.370;2022-08-23T04:29:27;10.93;;;6.20;;
71435;SDS011;59251;51.326;12.370;2022-08-23T04:31:53;11.93;;;6.60;;
71435;SDS011;59251;51.326;12.370;2022-08-23T04:34:18;17.37;;;6.33;;
71435;SDS011;59251;51.326;12.370;2022-08-23T04:36:44;12.50;;;6.27;;
71435;SDS011;59251;51.326;12.370;2022-08-23T04:39:09;13.02;;;6.03;;
71435;SDS011;59251;51.326;12.370;2022-08-23T04:41:34;11.87;;;6.17;;
71435;SDS011;59251;51.326;12.370;2022-08-23T04:44:19;11.23;;;6.38;;
71435;SDS011;59251;51.326;12.370;2022-08-23T04:46:45;16.77;;;6.63;;
71435;SDS011;59251;51.326;12.370;2022-08-23T04:49:12;12.17;;;5.90;;
71435;SDS011;59251;51.326;12.370;2022-08-23T04:51:38;10.38;;;6.47;;
71435;SDS011;59251;51.326;12.370;2022-08-23T04:54:03;13.10;;;6.70;;
71435;SDS011;59251;51.326;12.370;2022-08-23T04:56:30;13.38;;;6.88;;
71435;SDS011;59251;51.326;12.370;2022-08-23T04:58:55;12.25;;;5.90;;
71435;SDS011;59251;51.326;12.370;2022-08-23T05:01:22;12.20;;;5.78;;
71435;SDS011;59251;51.326;12.370;2022-08-23T05:03:49;10.07;;;5.40;;
71435;SDS011;59251;51.326;12.370;2022-08-23T05:06:15;11.50;;;6.03;;
71435;SDS011;59251;51.326;12.370;2022-08-23T05:08:40;11.23;;;5.97;;
71435;SDS011;59251;51.326;12.370;2022-08-23T05:11:06;11.67;;;5.83;;
71435;SDS011;59251;51.326;12.370;2022-08-23T05:13:33;11.93;;;5.68;;
71435;SDS011;59251;51.326;12.370;2022-08-23T05:15:59;13.65;;;6.20;;
71435;SDS011;59251;51.326;12.370;2022-08-23T05:18:24;11.57;;;5.63;;
71435;SDS011;59251;51.326;12.370;2022-08-23T05:20:50;12.82;;;5.90;;
71435;SDS011;59251;51.326;12.370;2022-08-23T05:23:16;11.70;;;5.73;;
71435;SDS011;59251;51.326;12.370;2022-08-23T05:25:41;10.77;;;5.90;;
71435;SDS011;59251;51.326;12.370;2022-08-23T05:28:24;10.80;;;6.13;;
71435;SDS011;59251;51.326;12.370;2022-08-23T05:30:58;11.00;;;5.97;;
71435;SDS011;59251;51.326;12.370;2022-08-23T05:33:27;12.40;;;5.90;;
71435;SDS011;59251;51.326;12.370;2022-08-23T05:35:53;11.50;;;5.13;;
71435;SDS011;59251;51.326;12.370;2022-08-23T05:38:19;11.53;;;5.33;;
71435;SDS011;59251;51.326;12.370;2022-08-23T05:40:52;12.13;;;5.88;;
71435;SDS011;59251;51.326;12.370;2022-08-23T05:43:20;14.05;;;6.40;;
71435;SDS011;59251;51.326;12.370;2022-08-23T05:45:46;11.77;;;6.18;;
71435;SDS011;59251;51.326;12.370;2022-08-23T05:48:12;14.93;;;5.73;;
71435;SDS011;59251;51.326;12.370;2022-08-23T05:50:39;12.80;;;5.78;;
71435;SDS011;59251;51.326;12.370;2022-08-23T05:53:05;10.93;;;5.70;;
71435;SDS011;59251;51.326;12.370;2022-08-23T05:55:31;14.18;;;6.50;;
71435;SDS011;59251;51.326;12.370;2022-08-23T05:57:57;11.40;;;5.97;;
71435;SDS011;59251;51.326;12.370;2022-08-23T06:00:23;14.45;;;5.85;;
71435;SDS011;59251;51.326;12.370;2022-08-23T06:02:49;11.03;;;5.37;;
71435;SDS011;59251;51.326;12.370;2022-08-23T06:05:15;9.73;;;5.83;;
71435;SDS011;59251;51.326;12.370;2022-08-23T06:07:41;9.73;;;5.25;;
71435;SDS011;59251;51.326;12.370;2022-08-23T06:10:07;10.23;;;5.57;;
71435;SDS011;59251;51.326;12.370;2022-08-23T06:12:34;11.98;;;5.80;;
71435;SDS011;59251;51.326;12.370;2022-08-23T06:14:59;10.50;;;5.63;;
71435;SDS011;59251;51.326;12.370;2022-08-23T06:17:26;10.35;;;5.00;;
71435;SDS011;59251;51.326;12.370;2022-08-23T06:19:52;11.15;;;5.20;;
71435;SDS011;59251;51.326;12.370;2022-08-23T06:22:18;12.73;;;5.40;;
71435;SDS011;59251;51.326;12.370;2022-08-23T06:24:43;13.88;;;4.68;;
71435;SDS011;59251;51.326;12.370;2022-08-23T06:27:09;12.87;;;5.83;;
71435;SDS011;59251;51.326;12.370;2022-08-23T06:29:35;9.50;;;4.97;;
71435;SDS011;59251;51.326;12.370;2022-08-23T06:32:02;11.68;;;5.30;;
71435;SDS011;59251;51.326;12.370;2022-08-23T06:34:30;14.18;;;5.25;;
71435;SDS011;59251;51.326;12.370;2022-08-23T06:36:59;13.37;;;5.10;;
71435;SDS011;59251;51.326;12.370;2022-08-23T06:39:36;12.98;;;4.43;;
71435;SDS011;59251;51.326;12.370;2022-08-23T06:42:03;12.43;;;4.57;;
71435;SDS011;59251;51.326;12.370;2022-08-23T06:44:37;8.90;;;4.13;;
71435;SDS011;59251;51.326;12.370;2022-08-23T06:47:03;10.27;;;4.47;;
71435;SDS011;59251;51.326;12.370;2022-08-23T06:49:29;14.73;;;5.03;;
71435;SDS011;59251;51.326;12.370;2022-08-23T06:51:56;14.23;;;4.97;;
71435;SDS011;59251;51.326;12.370;2022-08-23T06:54:24;9.27;;;4.20;;
71435;SDS011;59251;51.326;12.370;2022-08-23T06:56:51;11.32;;;4.32;;
71435;SDS011;59251;51.326;12.370;2022-08-23T06:59:18;9.57;;;3.90;;
71435;SDS011;59251;51.326;12.370;2022-08-23T07:01:46;9.77;;;4.32;;
71435;SDS011;59251;51.326;12.370;2022-08-23T07:04:23;8.63;;;4.07;;
71435;SDS011;59251;51.326;12.370;2022-08-23T07:06:54;12.27;;;4.43;;
71435;SDS011;59251;51.326;12.370;2022-08-23T07:09:20;9.73;;;4.10;;
71435;SDS011;59251;51.326;12.370;2022-08-23T07:11:46;9.77;;;4.25;;
71435;SDS011;59251;51.326;12.370;2022-08-23T07:14:12;11.47;;;4.10;;
71435;SDS011;59251;51.326;12.370;2022-08-23T07:16:42;12.88;;;4.50;;
71435;SDS011;59251;51.326;12.370;2022-08-23T07:19:10;10.27;;;4.03;;
71435;SDS011;59251;51.326;12.370;2022-08-23T07:21:36;10.75;;;5.40;;
71435;SDS011;59251;51.326;12.370;2022-08-23T07:24:02;9.87;;;4.50;;
71435;SDS011;59251;51.326;12.370;2022-08-23T07:26:29;10.85;;;4.70;;
71435;SDS011;59251;51.326;12.370;2022-08-23T07:28:55;9.00;;;4.20;;
71435;SDS011;59251;51.326;12.370;2022-08-23T07:31:25;9.02;;;3.72;;
71435;SDS011;59251;51.326;12.370;2022-08-23T07:33:54;10.77;;;4.13;;
71435;SDS011;59251;51.326;12.370;2022-08-23T07:36:22;9.40;;;4.23;;
71435;SDS011;59251;51.326;12.370;2022-08-23T07:38:48;10.05;;;4.40;;
71435;SDS011;59251;51.326;12.370;2022-08-23T07:41:14;8.57;;;4.22;;
71435;SDS011;59251;51.326;12.370;2022-08-23T07:43:41;8.60;;;4.50;;
71435;SDS011;59251;51.326;12.370;2022-08-23T07:46:08;11.63;;;4.15;;
71435;SDS011;59251;51.326;12.370;2022-08-23T07:48:34;12.43;;;4.43;;
71435;SDS011;59251;51.326;12.370;2022-08-23T07:51:01;9.70;;;4.50;;
71435;SDS011;59251;51.326;12.370;2022-08-23T07:53:29;11.07;;;4.30;;
71435;SDS011;59251;51.326;12.370;2022-08-23T07:55:55;12.95;;;4.88;;
71435;SDS011;59251;51.326;12.370;2022-08-23T07:58:21;9.80;;;4.50;;
71435;SDS011;59251;51.326;12.370;2022-08-23T08:00:48;15.17;;;7.33;;
71435;SDS011;59251;51.326;12.370;2022-08-23T08:03:14;11.82;;;4.53;;
71435;SDS011;59251;51.326;12.370;2022-08-23T08:05:40;10.57;;;4.25;;
71435;SDS011;59251;51.326;12.370;2022-08-23T08:08:06;10.80;;;4.80;;
71435;SDS011;59251;51.326;12.370;2022-08-23T08:10:34;11.10;;;4.68;;
71435;SDS011;59251;51.326;12.370;2022-08-23T08:13:00;11.95;;;4.43;;
71435;SDS011;59251;51.326;12.370;2022-08-23T08:15:26;10.67;;;4.13;;
71435;SDS011;59251;51.326;12.370;2022-08-23T08:17:51;10.27;;;4.47;;
71435;SDS011;59251;51.326;12.370;2022-08-23T08:20:18;9.20;;;4.13;;
71435;SDS011;59251;51.326;12.370;2022-08-23T08:22:44;12.10;;;3.72;;
71435;SDS011;59251;51.326;12.370;2022-08-23T08:25:11;8.50;;;4.20;;
71435;SDS011;59251;51.326;12.370;2022-08-23T08:27:38;10.73;;;4.13;;
71435;SDS011;59251;51.326;12.370;2022-08-23T08:30:03;8.13;;;3.53;;
71435;SDS011;59251;51.326;12.370;2022-08-23T08:32:30;10.73;;;3.80;;
71435;SDS011;59251;51.326;12.370;2022-08-23T08:34:55;8.43;;;4.23;;
71435;SDS011;59251;51.326;12.370;2022-08-23T08:37:21;9.88;;;3.90;;
71435;SDS011;59251;51.326;12.370;2022-08-23T08:39:46;10.87;;;4.00;;
71435;SDS011;59251;51.326;12.370;2022-08-23T08:47:44;10.70;;;3.72;;
71435;SDS011;59251;51.326;12.370;2022-08-23T08:50:30;7.22;;;3.38;;
71435;SDS011;59251;51.326;12.370;2022-08-23T08:53:10;7.97;;;3.00;;
71435;SDS011;59251;51.326;12.370;2022-08-23T08:55:50;8.52;;;3.00;;
71435;SDS011;59251;51.326;12.370;2022-08-23T08:58:24;7.00;;;3.45;;
71435;SDS011;59251;51.326;12.370;2022-08-23T09:00:53;10.63;;;3.00;;
71435;SDS011;59251;51.326;12.370;2022-08-23T09:03:19;12.33;;;4.83;;
71435;SDS011;59251;51.326;12.370;2022-08-23T09:17:43;8.23;;;2.90;;
71435;SDS011;59251;51.326;12.370;2022-08-23T09:20:18;7.97;;;2.60;;
71435;SDS011;59251;51.326;12.370;2022-08-23T09:22:47;8.50;;;2.70;;
71435;SDS011;59251;51.326;12.370;2022-08-23T09:25:22;12.65;;;3.70;;
71435;SDS011;59251;51.326;12.370;2022-08-23T09:27:48;7.22;;;2.47;;
71435;SDS011;59251;51.326;12.370;2022-08-23T09:30:14;7.77;;;2.50;;
71435;SDS011;59251;51.326;12.370;2022-08-23T09:32:42;9.35;;;2.33;;
71435;SDS011;59251;51.326;12.370;2022-08-23T09:35:16;7.20;;;2.53;;
71435;SDS011;59251;51.326;12.370;2022-08-23T09:37:46;7.97;;;2.25;;
71435;SDS011;59251;51.326;12.370;2022-08-23T09:46:01;8.27;;;2.20;;
71435;SDS011;59251;51.326;12.370;2022-08-23T09:48:59;6.83;;;1.97;;
71435;SDS011;59251;51.326;12.370;2022-08-23T09:51:24;6.43;;;2.10;;
71435;SDS011;59251;51.326;12.370;2022-08-23T09:54:17;8.68;;;2.40;;
71435;SDS011;59251;51.326;12.370;2022-08-23T09:56:55;7.72;;;2.30;;
71435;SDS011;59251;51.326;12.370;2022-08-23T10:01:58;8.67;;;2.17;;
71435;SDS011;59251;51.326;12.370;2022-08-23T10:07:25;9.95;;;2.65;;
71435;SDS011;59251;51.326;12.370;2022-08-23T10:10:12;11.70;;;2.45;;
71435;SDS011;59251;51.326;12.370;2022-08-23T10:12:41;8.70;;;2.50;;
71435;SDS011;59251;51.326;12.370;2022-08-23T10:15:07;8.60;;;2.30;;
71435;SDS011;59251;51.326;12.370;2022-08-23T10:17:42;6.82;;;2.40;;
71435;SDS011;59251;51.326;12.370;2022-08-23T10:20:15;6.90;;;2.20;;
71435;SDS011;59251;51.326;12.370;2022-08-23T10:23:02;9.65;;;2.40;;
71435;SDS011;59251;51.326;12.370;2022-08-23T10:34:23;8.20;;;2.58;;
71435;SDS011;59251;51.326;12.370;2022-08-23T10:39:30;6.97;;;2.30;;
71435;SDS011;59251;51.326;12.370;2022-08-23T10:47:09;11.98;;;1.95;;
71435;SDS011;59251;51.326;12.370;2022-08-23T10:49:55;6.40;;;1.90;;
71435;SDS011;59251;51.326;12.370;2022-08-23T10:52:35;7.10;;;1.90;;
71435;SDS011;59251;51.326;12.370;2022-08-23T10:55:05;7.13;;;2.00;;
71435;SDS011;59251;51.326;12.370;2022-08-23T10:57:42;7.90;;;2.08;;
71435;SDS011;59251;51.326;12.370;2022-08-23T11:00:12;8.07;;;2.30;;
71435;SDS011;59251;51.326;12.370;2022-08-23T11:02:56;8.65;;;2.25;;
71435;SDS011;59251;51.326;12.370;2022-08-23T11:05:28;6.80;;;2.03;;
71435;SDS011;59251;51.326;12.370;2022-08-23T11:10:39;7.00;;;1.98;;
71435;SDS011;59251;51.326;12.370;2022-08-23T11:28:51;6.38;;;2.38;;
71435;SDS011;59251;51.326;12.370;2022-08-23T11:31:30;7.20;;;2.20;;
71435;SDS011;59251;51.326;12.370;2022-08-23T11:42:23;11.25;;;2.30;;
71435;SDS011;59251;51.326;12.370;2022-08-23T11:44:49;6.40;;;2.00;;
71435;SDS011;59251;51.326;12.370;2022-08-23T11:47:15;7.00;;;1.90;;
71435;SDS011;59251;51.326;12.370;2022-08-23T11:52:56;7.93;;;2.03;;
71435;SDS011;59251;51.326;12.370;2022-08-23T11:58:29;6.68;;;1.80;;
71435;SDS011;59251;51.326;12.370;2022-08-23T12:01:15;7.22;;;2.08;;
71435;SDS011;59251;51.326;12.370;2022-08-23T12:11:10;6.00;;;2.08;;
71435;SDS011;59251;51.326;12.370;2022-08-23T12:13:55;5.77;;;2.10;;
71435;SDS011;59251;51.326;12.370;2022-08-23T12:24:47;6.53;;;2.20;;
71435;SDS011;59251;51.326;12.370;2022-08-23T12:27:04;6.25;;;2.10;;
71435;SDS011;59251;51.326;12.370;2022-08-23T12:33:14;6.70;;;2.40;;
71435;SDS011;59251;51.326;12.370;2022-08-23T12:40:41;6.90;;;1.90;;
71435;SDS011;59251;51.326;12.370;2022-08-23T12:45:46;9.15;;;2.10;;
71435;SDS011;59251;51.326;12.370;2022-08-23T12:48:16;7.18;;;2.00;;
71435;SDS011;59251;51.326;12.370;2022-08-23T12:50:55;11.57;;;2.70;;
71435;SDS011;59251;51.326;12.370;2022-08-23T12:55:54;7.10;;;2.33;;
71435;SDS011;59251;51.326;12.370;2022-08-23T12:58:27;10.15;;;2.40;;
71435;SDS011;59251;51.326;12.370;2022-08-23T13:00:56;11.45;;;2.60;;
71435;SDS011;59251;51.326;12.370;2022-08-23T13:05:56;8.48;;;2.25;;
71435;SDS011;59251;51.326;12.370;2022-08-23T13:08:26;9.48;;;2.08;;
71435;SDS011;59251;51.326;12.370;2022-08-23T13:11:03;8.77;;;2.20;;
71435;SDS011;59251;51.326;12.370;2022-08-23T13:13:30;7.75;;;2.10;;
71435;SDS011;59251;51.326;12.370;2022-08-23T13:15:57;7.37;;;1.80;;
71435;SDS011;59251;51.326;12.370;2022-08-23T13:21:35;8.18;;;2.00;;
71435;SDS011;59251;51.326;12.370;2022-08-23T13:23:58;7.97;;;2.50;;
71435;SDS011;59251;51.326;12.370;2022-08-23T13:26:38;7.30;;;2.07;;
71435;SDS011;59251;51.326;12.370;2022-08-23T13:34:32;7.65;;;2.15;;
71435;SDS011;59251;51.326;12.370;2022-08-23T13:37:01;7.57;;;1.90;;
71435;SDS011;59251;51.326;12.370;2022-08-23T13:39:30;5.93;;;1.50;;
71435;SDS011;59251;51.326;12.370;2022-08-23T13:41:57;7.15;;;2.08;;
71435;SDS011;59251;51.326;12.370;2022-08-23T13:44:22;7.75;;;1.98;;
71435;SDS011;59251;51.326;12.370;2022-08-23T13:46:49;7.63;;;2.07;;
71435;SDS011;59251;51.326;12.370;2022-08-23T13:49:16;7.35;;;1.80;;
71435;SDS011;59251;51.326;12.370;2022-08-23T13:54:23;11.65;;;2.17;;
71435;SDS011;59251;51.326;12.370;2022-08-23T13:56:53;6.40;;;1.80;;
71435;SDS011;59251;51.326;12.370;2022-08-23T13:59:23;8.30;;;1.80;;
71435;SDS011;59251;51.326;12.370;2022-08-23T14:01:51;6.30;;;1.90;;
71435;SDS011;59251;51.326;12.370;2022-08-23T14:04:17;8.83;;;3.77;;
71435;SDS011;59251;51.326;12.370;2022-08-23T14:06:43;6.90;;;1.80;;
71435;SDS011;59251;51.326;12.370;2022-08-23T14:09:08;6.30;;;2.20;;
71435;SDS011;59251;51.326;12.370;2022-08-23T14:11:33;6.57;;;1.90;;
71435;SDS011;59251;51.326;12.370;2022-08-23T14:13:59;6.37;;;1.60;;
71435;SDS011;59251;51.326;12.370;2022-08-23T14:16:27;6.97;;;1.70;;
71435;SDS011;59251;51.326;12.370;2022-08-23T14:18:54;5.85;;;1.75;;
71435;SDS011;59251;51.326;12.370;2022-08-23T14:21:20;6.80;;;2.33;;
71435;SDS011;59251;51.326;12.370;2022-08-23T14:23:45;6.53;;;1.80;;
71435;SDS011;59251;51.326;12.370;2022-08-23T14:26:12;8.00;;;1.90;;
71435;SDS011;59251;51.326;12.370;2022-08-23T14:28:41;6.25;;;1.80;;
71435;SDS011;59251;51.326;12.370;2022-08-23T14:31:08;5.70;;;1.52;;
71435;SDS011;59251;51.326;12.370;2022-08-23T14:33:33;5.57;;;1.50;;
71435;SDS011;59251;51.326;12.370;2022-08-23T14:35:59;5.73;;;1.23;;
71435;SDS011;59251;51.326;12.370;2022-08-23T14:38:24;5.32;;;1.40;;
71435;SDS011;59251;51.326;12.370;2022-08-23T14:40:54;11.43;;;5.67;;
71435;SDS011;59251;51.326;12.370;2022-08-23T14:43:23;7.00;;;1.90;;
71435;SDS011;59251;51.326;12.370;2022-08-23T14:45:49;6.20;;;1.80;;
71435;SDS011;59251;51.326;12.370;2022-08-23T14:48:15;6.32;;;1.60;;
71435;SDS011;59251;51.326;12.370;2022-08-23T14:50:42;6.75;;;1.80;;
71435;SDS011;59251;51.326;12.370;2022-08-23T14:53:08;5.30;;;1.43;;
71435;SDS011;59251;51.326;12.370;2022-08-23T14:55:34;7.35;;;1.90;;
71435;SDS011;59251;51.326;12.370;2022-08-23T14:58:00;5.47;;;1.80;;
71435;SDS011;59251;51.326;12.370;2022-08-23T15:00:27;7.53;;;1.77;;
71435;SDS011;59251;51.326;12.370;2022-08-23T15:02:53;7.00;;;2.00;;
71435;SDS011;59251;51.326;12.370;2022-08-23T15:05:18;7.73;;;1.97;;
71435;SDS011;59251;51.326;12.370;2022-08-23T15:07:44;5.53;;;1.80;;
71435;SDS011;59251;51.326;12.370;2022-08-23T15:10:09;6.17;;;2.10;;
71435;SDS011;59251;51.326;12.370;2022-08-23T15:12:37;6.60;;;1.90;;
71435;SDS011;59251;51.326;12.370;2022-08-23T15:15:04;7.77;;;1.93;;
71435;SDS011;59251;51.326;12.370;2022-08-23T15:17:49;5.07;;;1.90;;
71435;SDS011;59251;51.326;12.370;2022-08-23T15:20:21;8.80;;;1.95;;
71435;SDS011;59251;51.326;12.370;2022-08-23T15:22:48;7.45;;;2.30;;
71435;SDS011;59251;51.326;12.370;2022-08-23T15:25:14;5.70;;;2.00;;
71435;SDS011;59251;51.326;12.370;2022-08-23T15:27:41;6.75;;;1.90;;
71435;SDS011;59251;51.326;12.370;2022-08-23T15:30:09;8.68;;;2.72;;
71435;SDS011;59251;51.326;12.370;2022-08-23T15:32:36;7.15;;;2.40;;
71435;SDS011;59251;51.326;12.370;2022-08-23T15:35:02;5.93;;;2.33;;
71435;SDS011;59251;51.326;12.370;2022-08-23T15:37:27;5.75;;;2.00;;
71435;SDS011;59251;51.326;12.370;2022-08-23T15:39:53;6.13;;;2.07;;
71435;SDS011;59251;51.326;12.370;2022-08-23T15:42:18;6.67;;;1.73;;
71435;SDS011;59251;51.326;12.370;2022-08-23T15:44:44;6.90;;;2.40;;
71435;SDS011;59251;51.326;12.370;2022-08-23T15:50:11;6.38;;;2.00;;
71435;SDS011;59251;51.326;12.370;2022-08-23T15:52:36;7.78;;;2.00;;
71435;SDS011;59251;51.326;12.370;2022-08-23T15:55:02;8.57;;;1.93;;
71435;SDS011;59251;51.326;12.370;2022-08-23T15:57:29;7.18;;;1.92;;
71435;SDS011;59251;51.326;12.370;2022-08-23T15:59:56;7.40;;;2.10;;
71435;SDS011;59251;51.326;12.370;2022-08-23T16:02:22;7.22;;;2.20;;
71435;SDS011;59251;51.326;12.370;2022-08-23T16:04:48;6.70;;;2.10;;
71435;SDS011;59251;51.326;12.370;2022-08-23T16:07:14;5.73;;;1.70;;
71435;SDS011;59251;51.326;12.370;2022-08-23T16:09:42;5.72;;;1.77;;
71435;SDS011;59251;51.326;12.370;2022-08-23T16:12:08;6.23;;;1.90;;
71435;SDS011;59251;51.326;12.370;2022-08-23T16:14:34;5.40;;;1.60;;
71435;SDS011;59251;51.326;12.370;2022-08-23T16:17:00;7.43;;;2.20;;
71435;SDS011;59251;51.326;12.370;2022-08-23T16:19:26;7.07;;;2.00;;
71435;SDS011;59251;51.326;12.370;2022-08-23T16:21:53;5.70;;;1.50;;
71435;SDS011;59251;51.326;12.370;2022-08-23T16:24:19;7.82;;;1.77;;
71435;SDS011;59251;51.326;12.370;2022-08-23T16:26:46;6.05;;;2.05;;
71435;SDS011;59251;51.326;12.370;2022-08-23T16:29:13;7.32;;;2.00;;
71435;SDS011;59251;51.326;12.370;2022-08-23T16:31:41;6.43;;;1.53;;
71435;SDS011;59251;51.326;12.370;2022-08-23T16:34:08;6.95;;;1.90;;
71435;SDS011;59251;51.326;12.370;2022-08-23T16:36:37;8.52;;;2.00;;
71435;SDS011;59251;51.326;12.370;2022-08-23T16:39:03;6.70;;;2.08;;
71435;SDS011;59251;51.326;12.370;2022-08-23T16:41:29;7.82;;;1.88;;